createdAt,value
2019-03-17T00:00:50.640Z,21.48
2019-03-17T00:01:58.015Z,21.10
2019-03-17T00:03:04.787Z,20.80
2019-03-17T00:04:10.479Z,24.37
2019-03-17T00:05:16.235Z,22.70
2019-03-17T00:06:23.635Z,22.80
2019-03-17T00:07:31.243Z,25.27
2019-03-17T00:08:37.086Z,23.98
2019-03-17T00:09:42.786Z,23.83
2019-03-17T00:10:48.928Z,23.05
2019-03-17T00:11:54.797Z,22.22
2019-03-17T00:13:00.500Z,18.55
2019-03-17T00:14:06.956Z,20.62
2019-03-17T00:15:13.846Z,25.50
2019-03-17T00:16:20.886Z,26.00
2019-03-17T00:17:27.767Z,24.18
2019-03-17T00:18:33.898Z,25.70
2019-03-17T00:19:40.664Z,27.95
2019-03-17T00:20:48.351Z,22.20
2019-03-17T00:21:54.335Z,27.85
2019-03-17T00:23:01.059Z,25.88
2019-03-17T00:24:07.726Z,24.65
2019-03-17T00:25:14.528Z,25.55
2019-03-17T00:26:21.199Z,27.25
2019-03-17T00:27:27.406Z,24.00
2019-03-17T00:28:33.827Z,21.68
2019-03-17T00:29:40.746Z,23.45
2019-03-17T00:30:46.746Z,24.65
2019-03-17T00:31:53.657Z,25.85
2019-03-17T00:32:59.705Z,27.10
2019-03-17T00:34:05.447Z,30.00
2019-03-17T00:35:13.177Z,27.65
2019-03-17T00:36:19.045Z,25.92
2019-03-17T00:37:24.846Z,24.67
2019-03-17T00:38:30.585Z,26.35
2019-03-17T00:39:36.278Z,26.57
2019-03-17T00:40:41.987Z,26.07
2019-03-17T00:41:47.818Z,24.23
2019-03-17T00:42:53.533Z,24.05
2019-03-17T00:43:59.819Z,23.83
2019-03-17T00:45:12.510Z,24.32
2019-03-17T00:46:19.000Z,23.27
2019-03-17T00:47:25.789Z,21.97
2019-03-17T00:48:33.367Z,23.83
2019-03-17T00:49:39.387Z,23.62
2019-03-17T00:50:48.770Z,24.52
2019-03-17T00:51:55.485Z,21.73
2019-03-17T00:53:01.346Z,24.47
2019-03-17T00:54:07.955Z,24.50
2019-03-17T00:55:14.489Z,23.65
2019-03-17T00:56:20.497Z,24.35
2019-03-17T00:57:27.147Z,22.75
2019-03-17T00:58:33.009Z,27.27
2019-03-17T00:59:39.618Z,25.97
2019-03-17T01:00:45.803Z,22.23
2019-03-17T01:01:51.780Z,24.35
2019-03-17T01:02:57.935Z,24.45
2019-03-17T01:04:03.634Z,25.35
2019-03-17T01:05:10.377Z,28.23
2019-03-17T01:06:16.136Z,26.65
2019-03-17T01:07:21.863Z,27.52
2019-03-17T01:08:27.568Z,24.92
2019-03-17T01:09:34.816Z,27.17
2019-03-17T01:10:40.580Z,25.05
2019-03-17T01:11:46.257Z,25.17
2019-03-17T01:12:52.179Z,25.33
2019-03-17T01:13:58.699Z,25.80
2019-03-17T01:15:07.955Z,25.92
2019-03-17T01:16:14.698Z,27.20
2019-03-17T01:17:22.719Z,22.33
2019-03-17T01:18:28.539Z,24.52
2019-03-17T01:19:35.458Z,26.33
2019-03-17T01:20:41.586Z,26.35
2019-03-17T01:21:47.969Z,22.30
2019-03-17T01:22:54.928Z,24.67
2019-03-17T01:24:01.750Z,26.68
2019-03-17T01:25:11.141Z,24.30
2019-03-17T01:26:18.258Z,22.48
2019-03-17T01:27:24.470Z,24.47
2019-03-17T01:28:30.577Z,23.23
2019-03-17T01:29:38.638Z,21.68
2019-03-17T01:30:44.668Z,22.87
2019-03-17T01:31:51.188Z,24.70
2019-03-17T01:32:57.018Z,23.60
2019-03-17T01:34:02.859Z,25.10
2019-03-17T01:35:10.199Z,23.33
2019-03-17T01:36:16.166Z,21.93
2019-03-17T01:37:21.929Z,22.47
2019-03-17T01:38:27.648Z,21.97
2019-03-17T01:39:34.328Z,26.13
2019-03-17T01:40:40.149Z,24.82
2019-03-17T01:41:45.869Z,24.40
2019-03-17T01:42:51.585Z,25.40
2019-03-17T01:43:57.290Z,22.10
2019-03-17T01:45:03.559Z,21.27
2019-03-17T01:46:09.478Z,23.52
2019-03-17T01:47:15.429Z,24.30
2019-03-17T01:48:23.009Z,21.15
2019-03-17T01:49:28.852Z,19.12
2019-03-17T01:50:35.342Z,20.27
2019-03-17T01:51:41.749Z,21.20
2019-03-17T01:52:47.441Z,21.47
2019-03-17T01:53:54.531Z,25.67
2019-03-17T01:55:01.020Z,22.07
2019-03-17T01:56:06.835Z,21.37
2019-03-17T01:57:13.417Z,21.00
2019-03-17T01:58:21.270Z,24.33
2019-03-17T01:59:27.229Z,23.47
2019-03-17T02:00:55.440Z,23.67
2019-03-17T02:02:25.771Z,19.48
2019-03-17T02:04:45.607Z,21.10
2019-03-17T02:04:52.221Z,20.90
2019-03-17T02:05:57.950Z,21.87
2019-03-17T02:07:05.219Z,20.90
2019-03-17T02:08:11.029Z,19.87
2019-03-17T02:09:16.731Z,22.97
2019-03-17T02:10:22.410Z,20.03
2019-03-17T02:11:28.122Z,18.93
2019-03-17T02:12:33.819Z,17.27
2019-03-17T02:13:39.520Z,17.33
2019-03-17T02:14:46.580Z,20.70
2019-03-17T02:15:52.780Z,20.87
2019-03-17T02:16:58.817Z,22.60
2019-03-17T02:18:05.909Z,20.00
2019-03-17T02:19:13.281Z,21.20
2019-03-17T02:20:19.350Z,18.73
2019-03-17T02:21:26.080Z,20.13
2019-03-17T02:22:33.224Z,19.53
2019-03-17T02:23:40.507Z,16.97
2019-03-17T02:24:46.492Z,17.33
2019-03-17T02:25:52.770Z,18.03
2019-03-17T02:27:00.030Z,19.97
2019-03-17T02:28:06.160Z,18.63
2019-03-17T02:29:12.361Z,17.37
2019-03-17T02:30:19.121Z,18.67
2019-03-17T02:31:25.271Z,19.73
2019-03-17T02:32:31.235Z,19.73
2019-03-17T02:33:37.050Z,17.33
2019-03-17T02:34:42.735Z,18.27
2019-03-17T02:35:49.789Z,17.77
2019-03-17T02:36:55.491Z,18.27
2019-03-17T02:38:01.205Z,19.57
2019-03-17T02:39:07.511Z,21.13
2019-03-17T02:40:13.302Z,20.23
2019-03-17T02:41:18.982Z,18.70
2019-03-17T02:42:24.704Z,18.43
2019-03-17T02:43:30.496Z,18.67
2019-03-17T02:44:40.534Z,18.13
2019-03-17T02:45:47.961Z,19.00
2019-03-17T02:46:54.403Z,20.83
2019-03-17T02:48:00.572Z,19.53
2019-03-17T02:49:07.302Z,19.60
2019-03-17T02:50:13.903Z,18.10
2019-03-17T02:51:20.112Z,20.27
2019-03-17T02:52:26.511Z,17.67
2019-03-17T02:53:33.103Z,19.73
2019-03-17T02:54:38.801Z,18.53
2019-03-17T02:55:45.149Z,16.13
2019-03-17T02:56:53.532Z,19.27
2019-03-17T02:57:59.743Z,19.03
2019-03-17T02:59:05.971Z,15.70
2019-03-17T03:00:13.102Z,19.03
2019-03-17T03:01:18.742Z,20.57
2019-03-17T03:02:25.773Z,18.43
2019-03-17T03:03:32.803Z,17.63
2019-03-17T03:04:38.510Z,16.00
2019-03-17T03:05:54.715Z,16.43
2019-03-17T03:06:51.522Z,18.10
2019-03-17T03:07:57.330Z,18.73
2019-03-17T03:09:04.581Z,16.87
2019-03-17T03:10:10.356Z,19.17
2019-03-17T03:11:16.020Z,17.17
2019-03-17T03:12:21.733Z,20.07
2019-03-17T03:13:27.431Z,20.60
2019-03-17T03:14:33.083Z,18.73
2019-03-17T03:15:40.064Z,20.20
2019-03-17T03:16:47.442Z,19.00
2019-03-17T03:17:53.290Z,16.33
2019-03-17T03:19:00.464Z,20.20
2019-03-17T03:20:09.544Z,16.33
2019-03-17T03:21:16.270Z,16.30
2019-03-17T03:22:22.872Z,16.03
2019-03-17T03:23:30.055Z,16.43
2019-03-17T03:24:37.041Z,16.13
2019-03-17T03:25:44.252Z,17.33
2019-03-17T03:26:51.632Z,19.67
2019-03-17T03:27:57.974Z,17.17
2019-03-17T03:29:04.324Z,19.13
2019-03-17T03:30:15.104Z,18.40
2019-03-17T03:31:21.104Z,15.67
2019-03-17T03:32:27.364Z,15.90
2019-03-17T03:33:33.202Z,15.43
2019-03-17T03:34:38.902Z,15.40
2019-03-17T03:35:44.636Z,14.87
2019-03-17T03:36:50.335Z,16.37
2019-03-17T03:37:56.101Z,16.17
2019-03-17T03:39:01.751Z,18.13
2019-03-17T03:40:11.791Z,16.73
2019-03-17T03:41:17.670Z,14.60
2019-03-17T03:42:23.416Z,16.37
2019-03-17T03:43:29.116Z,16.53
2019-03-17T03:44:34.830Z,14.50
2019-03-17T03:45:41.247Z,17.20
2019-03-17T03:46:47.272Z,16.10
2019-03-17T03:47:53.828Z,13.40
2019-03-17T03:49:00.475Z,15.17
2019-03-17T03:50:09.384Z,14.97
2019-03-17T03:51:16.925Z,14.20
2019-03-17T03:52:23.794Z,15.27
2019-03-17T03:53:29.813Z,13.90
2019-03-17T03:54:38.602Z,15.30
2019-03-17T03:55:45.063Z,13.23
2019-03-17T03:56:51.171Z,16.67
2019-03-17T03:57:58.262Z,11.87
2019-03-17T03:59:04.422Z,11.70
2019-03-17T04:00:16.285Z,13.70
2019-03-17T04:01:23.510Z,13.47
2019-03-17T04:02:29.424Z,13.77
2019-03-17T04:03:35.750Z,16.37
2019-03-17T04:04:41.445Z,14.13
2019-03-17T04:05:47.255Z,16.00
2019-03-17T04:06:52.947Z,16.07
2019-03-17T04:07:58.614Z,14.13
2019-03-17T04:09:05.902Z,14.80
2019-03-17T04:10:12.254Z,17.87
2019-03-17T04:11:18.952Z,15.33
2019-03-17T04:12:24.629Z,15.27
2019-03-17T04:13:30.334Z,16.07
2019-03-17T04:14:36.003Z,14.17
2019-03-17T04:15:41.741Z,12.33
2019-03-17T04:16:48.664Z,11.83
2019-03-17T04:17:54.696Z,17.77
2019-03-17T04:19:00.742Z,16.73
2019-03-17T04:20:10.593Z,13.90
2019-03-17T04:21:17.864Z,14.23
2019-03-17T04:22:23.733Z,13.60
2019-03-17T04:23:30.675Z,15.30
2019-03-17T04:24:37.144Z,12.97
2019-03-17T04:25:43.184Z,12.07
2019-03-17T04:26:49.610Z,12.77
2019-03-17T04:27:55.494Z,15.37
2019-03-17T04:29:01.944Z,13.33
2019-03-17T04:30:11.712Z,14.17
2019-03-17T04:31:17.698Z,13.57
2019-03-17T04:32:25.509Z,17.00
2019-03-17T04:33:32.665Z,13.10
2019-03-17T04:34:38.633Z,11.33
2019-03-17T04:35:44.373Z,16.40
2019-03-17T04:36:50.107Z,14.43
2019-03-17T04:37:55.775Z,13.73
2019-03-17T04:39:01.428Z,14.87
2019-03-17T04:40:09.265Z,13.00
2019-03-17T04:41:14.955Z,12.33
2019-03-17T04:42:20.673Z,13.00
2019-03-17T04:43:26.383Z,15.93
2019-03-17T04:44:32.205Z,11.27
2019-03-17T04:45:38.467Z,13.87
2019-03-17T04:46:45.995Z,15.27
2019-03-17T04:47:52.131Z,13.23
2019-03-17T04:48:59.411Z,13.97
2019-03-17T04:50:09.477Z,13.37
2019-03-17T04:51:15.324Z,12.10
2019-03-17T04:52:22.163Z,12.20
2019-03-17T04:53:29.036Z,12.50
2019-03-17T04:54:34.784Z,15.53
2019-03-17T04:55:42.084Z,15.47
2019-03-17T04:56:49.077Z,14.80
2019-03-17T04:57:58.558Z,16.30
2019-03-17T04:59:05.914Z,13.17
2019-03-17T05:00:13.961Z,12.97
2019-03-17T05:01:20.156Z,12.07
2019-03-17T05:02:27.527Z,11.87
2019-03-17T05:03:35.204Z,13.10
2019-03-17T05:04:41.118Z,10.10
2019-03-17T05:05:46.834Z,13.10
2019-03-17T05:06:53.248Z,12.83
2019-03-17T05:07:59.046Z,13.27
2019-03-17T05:09:05.656Z,14.07
2019-03-17T05:10:13.523Z,11.93
2019-03-17T05:11:19.224Z,11.30
2019-03-17T05:12:24.901Z,13.67
2019-03-17T05:13:31.606Z,12.87
2019-03-17T05:14:37.286Z,11.57
2019-03-17T05:15:43.934Z,12.20
2019-03-17T05:16:51.046Z,10.57
2019-03-17T05:17:57.454Z,13.77
2019-03-17T05:19:04.482Z,11.50
2019-03-17T05:20:12.011Z,10.40
2019-03-17T05:21:18.970Z,16.13
2019-03-17T05:22:26.186Z,12.07
2019-03-17T05:23:32.008Z,11.43
2019-03-17T05:24:38.476Z,14.13
2019-03-17T05:25:45.725Z,10.63
2019-03-17T05:26:52.077Z,10.57
2019-03-17T05:27:59.566Z,13.90
2019-03-17T05:29:06.356Z,11.17
2019-03-17T05:30:15.457Z,11.83
2019-03-17T05:31:22.867Z,11.83
2019-03-17T05:32:29.347Z,11.30
2019-03-17T05:33:35.911Z,11.13
2019-03-17T05:34:41.937Z,11.27
2019-03-17T05:35:47.790Z,11.33
2019-03-17T05:37:05.526Z,11.37
2019-03-17T05:38:01.808Z,11.47
2019-03-17T05:39:08.537Z,10.70
2019-03-17T05:40:14.358Z,10.67
2019-03-17T05:41:20.109Z,12.70
2019-03-17T05:42:25.946Z,12.43
2019-03-17T05:43:31.657Z,9.37
2019-03-17T05:44:37.660Z,11.70
2019-03-17T05:45:44.290Z,9.33
2019-03-17T05:46:51.398Z,13.47
2019-03-17T05:47:57.527Z,12.10
2019-03-17T05:49:04.397Z,11.77
2019-03-17T05:50:12.227Z,10.87
2019-03-17T05:51:18.506Z,9.80
2019-03-17T05:52:27.388Z,12.17
2019-03-17T05:53:34.115Z,10.47
2019-03-17T05:54:40.597Z,9.57
2019-03-17T05:55:46.907Z,10.90
2019-03-17T05:56:54.092Z,9.27
2019-03-17T05:58:00.515Z,9.17
2019-03-17T05:59:07.676Z,10.50
2019-03-17T06:00:18.227Z,9.23
2019-03-17T06:01:25.347Z,12.97
2019-03-17T06:02:32.958Z,11.10
2019-03-17T06:04:05.109Z,11.13
2019-03-17T06:05:14.818Z,14.17
2019-03-17T06:06:31.151Z,12.37
2019-03-17T06:07:37.591Z,9.97
2019-03-17T06:08:44.763Z,13.50
2019-03-17T06:09:51.764Z,15.33
2019-03-17T06:10:57.678Z,8.80
2019-03-17T06:12:03.488Z,10.10
2019-03-17T06:13:09.466Z,8.73
2019-03-17T06:14:15.344Z,13.00
2019-03-17T06:15:22.079Z,11.40
2019-03-17T06:16:27.738Z,13.17
2019-03-17T06:17:34.368Z,9.77
2019-03-17T06:18:40.958Z,14.13
2019-03-17T06:19:46.977Z,10.83
2019-03-17T06:20:53.639Z,10.23
2019-03-17T06:22:01.019Z,9.17
2019-03-17T06:23:07.209Z,10.00
2019-03-17T06:24:14.040Z,8.53
2019-03-17T06:25:21.727Z,9.40
2019-03-17T06:26:29.777Z,8.90
2019-03-17T06:27:36.240Z,8.40
2019-03-17T06:28:42.489Z,11.53
2019-03-17T06:29:48.676Z,8.77
2019-03-17T06:30:55.389Z,9.47
2019-03-17T06:32:02.428Z,7.93
2019-03-17T06:33:08.386Z,8.33
2019-03-17T06:34:15.426Z,12.00
2019-03-17T06:35:21.474Z,10.60
2019-03-17T06:36:27.245Z,9.47
2019-03-17T06:37:32.950Z,9.83
2019-03-17T06:38:38.809Z,9.00
2019-03-17T06:39:44.588Z,10.87
2019-03-17T06:40:50.405Z,9.73
2019-03-17T06:41:57.519Z,10.27
2019-03-17T06:43:03.949Z,9.53
2019-03-17T06:44:10.280Z,8.20
2019-03-17T06:45:16.525Z,9.97
2019-03-17T06:46:24.539Z,11.97
2019-03-17T06:47:31.920Z,9.27
2019-03-17T06:48:38.909Z,8.90
2019-03-17T06:49:45.020Z,9.13
2019-03-17T06:50:53.810Z,9.60
2019-03-17T06:52:11.786Z,9.13
2019-03-17T06:53:19.879Z,8.77
2019-03-17T06:54:25.811Z,10.40
2019-03-17T06:55:31.780Z,10.97
2019-03-17T06:56:57.968Z,12.43
2019-03-17T06:58:05.944Z,8.43
2019-03-17T06:59:12.554Z,12.90
2019-03-17T07:00:23.419Z,8.50
2019-03-17T07:01:29.996Z,9.70
2019-03-17T07:02:36.484Z,8.70
2019-03-17T07:03:43.567Z,11.13
2019-03-17T07:04:54.877Z,11.87
2019-03-17T07:06:00.899Z,9.57
2019-03-17T07:07:06.811Z,10.43
2019-03-17T07:08:12.751Z,10.80
2019-03-17T07:09:19.040Z,10.07
2019-03-17T07:10:25.161Z,9.70
2019-03-17T07:11:30.902Z,11.53
2019-03-17T07:12:39.811Z,10.40
2019-03-17T07:13:47.224Z,10.73
2019-03-17T07:14:53.394Z,11.90
2019-03-17T07:15:59.731Z,9.00
2019-03-17T07:17:07.018Z,10.73
2019-03-17T07:18:15.269Z,12.50
2019-03-17T07:19:22.819Z,8.87
2019-03-17T07:20:29.646Z,11.87
2019-03-17T07:21:36.046Z,11.50
2019-03-17T07:22:42.340Z,8.10
2019-03-17T07:23:48.191Z,9.77
2019-03-17T07:24:54.058Z,12.17
2019-03-17T07:26:01.077Z,12.53
2019-03-17T07:27:07.551Z,17.10
2019-03-17T07:28:14.170Z,18.63
2019-03-17T07:29:20.396Z,18.57
2019-03-17T07:30:26.382Z,12.50
2019-03-17T07:31:33.561Z,12.00
2019-03-17T07:32:40.621Z,13.63
2019-03-17T07:33:46.479Z,12.00
2019-03-17T07:34:53.071Z,14.80
2019-03-17T07:35:59.280Z,12.00
2019-03-17T07:37:06.533Z,11.10
2019-03-17T07:38:12.239Z,9.47
2019-03-17T07:39:18.091Z,12.63
2019-03-17T07:40:23.861Z,9.20
2019-03-17T07:41:29.737Z,10.90
2019-03-17T07:42:35.703Z,9.13
2019-03-17T07:43:41.412Z,12.60
2019-03-17T07:44:48.462Z,9.93
2019-03-17T07:45:54.642Z,11.80
2019-03-17T07:47:01.382Z,9.17
2019-03-17T07:48:08.001Z,10.20
2019-03-17T07:49:14.372Z,9.90
2019-03-17T07:50:20.759Z,11.40
2019-03-17T07:51:27.071Z,10.60
2019-03-17T07:52:32.912Z,8.30
2019-03-17T07:53:38.712Z,11.43
2019-03-17T07:54:45.360Z,10.43
2019-03-17T07:55:51.829Z,11.53
2019-03-17T07:56:58.282Z,9.43
2019-03-17T07:58:04.603Z,8.97
2019-03-17T07:59:10.922Z,8.53
2019-03-17T08:00:17.432Z,10.57
2019-03-17T08:01:23.793Z,12.00
2019-03-17T08:02:30.093Z,8.77
2019-03-17T08:03:36.960Z,8.57
2019-03-17T08:04:46.102Z,10.47
2019-03-17T08:05:50.411Z,9.67
2019-03-17T08:06:57.313Z,8.50
2019-03-17T08:08:09.407Z,13.00
2019-03-17T08:09:10.742Z,8.30
2019-03-17T08:10:17.492Z,8.83
2019-03-17T08:11:23.413Z,8.10
2019-03-17T08:12:29.123Z,8.57
2019-03-17T08:13:36.192Z,9.30
2019-03-17T08:14:44.174Z,9.27
2019-03-17T08:15:50.013Z,13.40
2019-03-17T08:16:57.000Z,10.17
2019-03-17T08:18:04.914Z,9.87
2019-03-17T08:19:11.282Z,10.73
2019-03-17T08:20:20.091Z,13.23
2019-03-17T08:21:26.293Z,8.47
2019-03-17T08:22:33.057Z,9.23
2019-03-17T08:23:39.601Z,7.30
2019-03-17T08:24:45.934Z,10.90
2019-03-17T08:25:52.593Z,8.30
2019-03-17T08:26:58.674Z,11.77
2019-03-17T08:28:05.025Z,11.03
2019-03-17T08:29:11.623Z,17.90
2019-03-17T08:30:19.265Z,11.80
2019-03-17T08:31:26.936Z,9.83
2019-03-17T08:32:34.763Z,9.20
2019-03-17T08:33:48.342Z,10.47
2019-03-17T08:34:54.293Z,10.50
2019-03-17T08:36:00.203Z,12.57
2019-03-17T08:37:06.042Z,8.60
2019-03-17T08:38:21.421Z,7.80
2019-03-17T08:39:19.314Z,8.63
2019-03-17T08:40:25.144Z,10.90
2019-03-17T08:41:31.123Z,6.80
2019-03-17T08:42:37.976Z,9.87
2019-03-17T08:43:53.790Z,8.13
2019-03-17T08:44:51.634Z,8.23
2019-03-17T08:45:58.626Z,8.07
2019-03-17T08:47:04.453Z,9.63
2019-03-17T08:48:10.439Z,8.17
2019-03-17T08:49:17.664Z,8.40
2019-03-17T08:50:38.211Z,7.10
2019-03-17T08:51:44.341Z,8.70
2019-03-17T08:52:50.749Z,6.47
2019-03-17T08:53:57.954Z,9.83
2019-03-17T08:55:05.665Z,8.40
2019-03-17T08:56:12.132Z,6.43
2019-03-17T08:57:18.627Z,7.77
2019-03-17T08:58:24.683Z,9.30
2019-03-17T08:59:31.225Z,10.40
2019-03-17T09:00:38.716Z,10.43
2019-03-17T09:01:47.735Z,10.00
2019-03-17T09:02:53.676Z,9.80
2019-03-17T09:04:03.383Z,9.93
2019-03-17T09:05:11.874Z,7.63
2019-03-17T09:06:18.617Z,11.37
2019-03-17T09:07:24.582Z,10.03
2019-03-17T09:08:35.398Z,10.17
2019-03-17T09:09:38.143Z,9.97
2019-03-17T09:10:43.975Z,7.97
2019-03-17T09:11:51.952Z,8.77
2019-03-17T09:12:58.065Z,7.03
2019-03-17T09:14:04.323Z,8.77
2019-03-17T09:15:11.005Z,6.43
2019-03-17T09:16:18.933Z,8.70
2019-03-17T09:17:25.485Z,7.57
2019-03-17T09:18:31.399Z,6.60
2019-03-17T09:19:37.335Z,6.07
2019-03-17T09:20:43.958Z,7.43
2019-03-17T09:21:53.283Z,6.83
2019-03-17T09:23:00.605Z,7.07
2019-03-17T09:24:16.719Z,7.97
2019-03-17T09:25:15.585Z,9.67
2019-03-17T09:26:22.455Z,10.17
2019-03-17T09:27:28.756Z,6.23
2019-03-17T09:28:36.862Z,7.03
2019-03-17T09:29:44.680Z,7.90
2019-03-17T09:30:50.594Z,8.50
2019-03-17T09:31:56.755Z,8.07
2019-03-17T09:33:04.024Z,10.03
2019-03-17T09:34:09.939Z,8.93
2019-03-17T09:35:16.697Z,10.47
2019-03-17T09:36:23.035Z,6.97
2019-03-17T09:37:30.386Z,7.93
2019-03-17T09:38:46.823Z,9.07
2019-03-17T09:39:44.012Z,7.83
2019-03-17T09:40:51.626Z,10.23
2019-03-17T09:41:57.365Z,10.57
2019-03-17T09:43:03.632Z,6.63
2019-03-17T09:44:30.044Z,7.83
2019-03-17T09:45:59.927Z,8.83
2019-03-17T09:47:15.623Z,6.53
2019-03-17T09:48:25.825Z,7.63
2019-03-17T09:49:31.966Z,7.27
2019-03-17T09:50:40.659Z,12.33
2019-03-17T09:51:51.736Z,6.93
2019-03-17T09:53:01.160Z,6.87
2019-03-17T09:54:10.652Z,7.90
2019-03-17T09:55:19.956Z,7.37
2019-03-17T09:56:26.446Z,8.53
2019-03-17T09:57:32.714Z,7.67
2019-03-17T09:58:38.979Z,9.37
2019-03-17T09:59:45.163Z,6.50
2019-03-17T10:00:52.056Z,7.10
2019-03-17T10:01:58.765Z,5.70
2019-03-17T10:03:04.878Z,10.43
2019-03-17T10:04:11.952Z,10.40
2019-03-17T10:05:18.470Z,8.43
2019-03-17T10:06:24.382Z,6.63
2019-03-17T10:07:30.527Z,6.77
2019-03-17T10:08:38.504Z,8.80
2019-03-17T10:09:44.496Z,8.33
2019-03-17T10:10:50.714Z,7.30
2019-03-17T10:13:28.092Z,5.60
2019-03-17T10:14:39.532Z,6.47
2019-03-17T10:15:47.567Z,7.67
2019-03-17T10:17:24.779Z,6.70
2019-03-17T10:18:31.074Z,7.83
2019-03-17T10:19:37.720Z,8.70
2019-03-17T10:20:44.418Z,8.60
2019-03-17T10:21:50.878Z,6.50
2019-03-17T10:23:00.177Z,7.57
2019-03-17T10:24:12.827Z,7.23
2019-03-17T10:25:19.297Z,6.27
2019-03-17T10:26:27.270Z,9.83
2019-03-17T10:27:33.900Z,7.37
2019-03-17T10:28:40.175Z,11.83
2019-03-17T10:29:47.859Z,7.77
2019-03-17T10:30:53.546Z,7.37
2019-03-17T10:31:59.770Z,6.63
2019-03-17T10:33:06.332Z,7.57
2019-03-17T10:34:12.639Z,7.70
2019-03-17T10:35:19.829Z,6.97
2019-03-17T10:36:25.887Z,7.23
2019-03-17T10:37:31.800Z,7.03
2019-03-17T10:38:37.517Z,5.50
2019-03-17T10:39:43.209Z,7.23
2019-03-17T10:40:49.028Z,5.73
2019-03-17T10:42:17.838Z,6.03
2019-03-17T10:43:50.823Z,4.83
2019-03-17T10:44:56.678Z,5.00
2019-03-17T10:46:02.607Z,6.53
2019-03-17T10:47:08.698Z,5.30
2019-03-17T10:48:15.967Z,5.70
2019-03-17T10:49:21.718Z,5.33
2019-03-17T10:50:28.831Z,9.53
2019-03-17T10:51:42.719Z,5.97
2019-03-17T10:52:50.314Z,8.07
2019-03-17T10:53:56.998Z,5.67
2019-03-17T10:55:04.288Z,5.17
2019-03-17T10:56:10.586Z,4.90
2019-03-17T10:57:17.519Z,7.30
2019-03-17T10:58:24.815Z,6.47
2019-03-17T10:59:36.845Z,9.67
2019-03-17T11:00:43.484Z,5.93
2019-03-17T11:01:50.238Z,5.30
2019-03-17T11:02:59.841Z,5.53
2019-03-17T11:04:07.648Z,4.43
2019-03-17T11:05:15.117Z,3.77
2019-03-17T11:06:22.740Z,3.63
2019-03-17T11:07:28.889Z,8.60
2019-03-17T11:08:37.381Z,4.97
2019-03-17T11:09:44.900Z,5.43
2019-03-17T11:10:52.399Z,6.03
2019-03-17T11:11:58.729Z,4.93
2019-03-17T11:13:04.611Z,5.53
2019-03-17T11:14:10.447Z,5.27
2019-03-17T11:15:19.556Z,3.83
2019-03-17T11:16:26.743Z,4.10
2019-03-17T11:17:55.241Z,9.20
2019-03-17T11:19:03.059Z,9.80
2019-03-17T11:20:16.025Z,7.33
2019-03-17T11:21:23.739Z,5.40
2019-03-17T11:22:30.430Z,5.83
2019-03-17T11:23:37.555Z,5.03
2019-03-17T11:24:55.524Z,5.30
2019-03-17T11:26:03.015Z,5.00
2019-03-17T11:27:10.972Z,5.80
2019-03-17T11:28:17.133Z,4.40
2019-03-17T11:29:24.012Z,6.73
2019-03-17T11:30:30.271Z,3.47
2019-03-17T11:31:36.699Z,4.87
2019-03-17T11:32:45.592Z,4.30
2019-03-17T11:34:34.899Z,4.30
2019-03-17T11:35:45.130Z,5.63
2019-03-17T11:36:51.359Z,7.97
2019-03-17T11:37:57.483Z,6.70
2019-03-17T11:39:03.619Z,4.30
2019-03-17T11:40:18.350Z,4.97
2019-03-17T11:41:24.272Z,6.77
2019-03-17T11:42:30.113Z,5.63
2019-03-17T11:43:35.830Z,5.60
2019-03-17T11:44:41.520Z,4.43
2019-03-17T11:45:47.201Z,6.33
2019-03-17T11:46:53.401Z,4.37
2019-03-17T11:48:01.000Z,4.33
2019-03-17T11:49:08.283Z,5.30
2019-03-17T11:50:20.798Z,5.33
2019-03-17T11:51:43.821Z,4.57
2019-03-17T11:52:52.314Z,4.23
2019-03-17T11:53:58.021Z,4.93
2019-03-17T11:55:04.500Z,6.13
2019-03-17T11:56:10.420Z,3.63
2019-03-17T11:57:17.130Z,5.00
2019-03-17T11:58:24.491Z,5.77
2019-03-17T11:59:30.590Z,5.90
2019-03-17T12:00:36.984Z,5.30
2019-03-17T12:01:43.551Z,8.10
2019-03-17T12:02:49.465Z,13.60
2019-03-17T12:03:55.822Z,7.33
2019-03-17T12:05:03.205Z,6.07
2019-03-17T12:06:09.489Z,7.60
2019-03-17T12:07:15.274Z,5.60
2019-03-17T12:08:21.271Z,8.73
2019-03-17T12:09:29.255Z,6.73
2019-03-17T12:10:34.788Z,7.93
2019-03-17T12:11:40.611Z,5.60
2019-03-17T12:12:46.529Z,10.50
2019-03-17T12:13:52.271Z,5.07
2019-03-17T12:14:57.992Z,6.33
2019-03-17T12:16:03.803Z,7.33
2019-03-17T12:17:09.531Z,6.83
2019-03-17T12:18:15.248Z,6.13
2019-03-17T12:19:21.948Z,6.23
2019-03-17T12:20:29.261Z,5.13
2019-03-17T12:21:36.435Z,5.73
2019-03-17T12:22:43.212Z,7.13
2019-03-17T12:23:50.092Z,5.90
2019-03-17T12:24:57.332Z,5.17
2019-03-17T12:26:03.334Z,6.03
2019-03-17T12:27:09.742Z,5.50
2019-03-17T12:28:16.794Z,7.73
2019-03-17T12:29:22.961Z,5.97
2019-03-17T12:30:30.141Z,15.07
2019-03-17T12:31:42.242Z,10.37
2019-03-17T12:32:49.949Z,9.90
2019-03-17T12:33:56.161Z,9.90
2019-03-17T12:35:03.243Z,7.67
2019-03-17T12:36:09.802Z,7.50
2019-03-17T12:37:15.962Z,10.13
2019-03-17T12:38:21.683Z,5.10
2019-03-17T12:39:27.765Z,10.00
2019-03-17T12:40:33.588Z,9.50
2019-03-17T12:41:39.371Z,6.23
2019-03-17T12:42:45.172Z,7.90
2019-03-17T12:43:50.912Z,11.83
2019-03-17T12:44:57.602Z,13.13
2019-03-17T12:46:05.142Z,8.77
2019-03-17T12:47:11.794Z,10.30
2019-03-17T12:48:18.892Z,15.80
2019-03-17T12:49:26.083Z,9.50
2019-03-17T12:50:33.713Z,7.60
2019-03-17T12:51:39.735Z,5.97
2019-03-17T12:52:45.859Z,5.97
2019-03-17T12:53:52.312Z,5.17
2019-03-17T12:54:58.593Z,6.33
2019-03-17T12:56:05.811Z,7.47
2019-03-17T12:57:12.864Z,6.37
2019-03-17T12:58:20.667Z,6.60
2019-03-17T12:59:28.950Z,11.63
2019-03-17T13:00:35.193Z,7.93
2019-03-17T13:01:41.717Z,5.73
2019-03-17T13:02:47.965Z,5.20
2019-03-17T13:03:53.751Z,7.20
2019-03-17T13:05:00.288Z,4.53
2019-03-17T13:06:08.364Z,7.47
2019-03-17T13:07:14.520Z,8.37
2019-03-17T13:08:20.251Z,9.93
2019-03-17T13:09:26.049Z,12.40
2019-03-17T13:10:31.818Z,17.93
2019-03-17T13:11:37.603Z,9.60
2019-03-17T13:12:43.656Z,7.07
2019-03-17T13:13:49.481Z,7.83
2019-03-17T13:14:55.532Z,5.47
2019-03-17T13:16:01.243Z,8.40
2019-03-17T13:17:07.652Z,9.70
2019-03-17T13:18:14.944Z,7.13
2019-03-17T13:19:22.136Z,4.97
2019-03-17T13:20:29.782Z,7.07
2019-03-17T13:21:36.097Z,9.37
2019-03-17T13:22:44.113Z,5.30
2019-03-17T13:23:50.011Z,7.13
2019-03-17T13:24:57.914Z,8.87
2019-03-17T13:26:04.072Z,6.33
2019-03-17T13:27:10.443Z,6.17
2019-03-17T13:28:17.526Z,16.70
2019-03-17T13:29:25.549Z,20.07
2019-03-17T13:30:32.413Z,10.73
2019-03-17T13:31:39.463Z,8.80
2019-03-17T13:32:45.844Z,11.13
2019-03-17T13:33:53.129Z,15.47
2019-03-17T13:35:00.675Z,7.23
2019-03-17T13:36:07.229Z,7.50
2019-03-17T13:37:14.458Z,5.73
2019-03-17T13:38:20.897Z,9.03
2019-03-17T13:39:27.107Z,5.40
2019-03-17T13:40:33.354Z,7.87
2019-03-17T13:41:40.561Z,5.70
2019-03-17T13:42:46.805Z,6.30
2019-03-17T13:43:52.801Z,4.87
2019-03-17T13:44:58.985Z,8.23
2019-03-17T13:46:06.605Z,7.97
2019-03-17T13:47:12.704Z,5.90
2019-03-17T13:48:18.996Z,6.37
2019-03-17T13:49:25.737Z,6.23
2019-03-17T13:50:33.224Z,7.27
2019-03-17T13:51:40.075Z,5.80
2019-03-17T13:52:47.018Z,6.90
2019-03-17T13:54:14.584Z,7.57
2019-03-17T13:55:21.274Z,7.53
2019-03-17T13:56:27.486Z,6.20
2019-03-17T13:57:34.275Z,10.57
2019-03-17T13:58:41.039Z,6.63
2019-03-17T14:00:09.885Z,6.07
2019-03-17T14:01:17.636Z,6.47
2019-03-17T14:02:24.400Z,8.03
2019-03-17T14:03:31.565Z,6.17
2019-03-17T14:04:38.477Z,5.70
2019-03-17T14:05:46.484Z,8.33
2019-03-17T14:06:54.535Z,9.70
2019-03-17T14:08:00.850Z,6.20
2019-03-17T14:09:07.575Z,8.83
2019-03-17T14:10:16.837Z,5.73
2019-03-17T14:11:23.141Z,7.70
2019-03-17T14:12:31.003Z,4.93
2019-03-17T14:13:37.354Z,5.00
2019-03-17T14:14:43.495Z,6.87
2019-03-17T14:15:49.702Z,8.10
2019-03-17T14:16:55.795Z,5.60
2019-03-17T14:18:01.956Z,5.97
2019-03-17T14:19:08.163Z,5.27
2019-03-17T14:20:24.916Z,5.37
2019-03-17T14:21:31.985Z,7.90
2019-03-17T14:22:39.297Z,8.23
2019-03-17T14:23:53.451Z,9.50
2019-03-17T14:25:02.658Z,7.10
2019-03-17T14:26:10.413Z,5.30
2019-03-17T14:27:17.076Z,10.60
2019-03-17T14:28:23.632Z,10.77
2019-03-17T14:29:33.169Z,10.57
2019-03-17T14:30:41.538Z,8.17
2019-03-17T14:31:49.338Z,9.43
2019-03-17T14:32:58.373Z,9.60
2019-03-17T14:34:05.646Z,6.83
2019-03-17T14:35:12.996Z,7.17
2019-03-17T14:36:21.509Z,7.00
2019-03-17T14:37:27.980Z,8.57
2019-03-17T14:38:34.266Z,5.03
2019-03-17T14:39:41.117Z,6.00
2019-03-17T14:40:53.276Z,7.80
2019-03-17T14:41:54.959Z,9.77